Latest Weather Observations for Hughenden

IDQ60801

Issued at 3:32 pm EST Wednesday 19 December 2018 (issued every 10 minutes, with the page automatically refreshed every 10 minutes)

About weather observations | Map of weather stations | Latest weather observations for QLD | Other Formats
Station Details ID: 030022 Name: HUGHENDEN AIRPORT Lat: -20.82 Lon: 144.23 Height: 316.4 m
Data from the previous 72 hours. | See also: Recent months at Hughenden
Date/Time
EST
Temp
°C
App
Temp
°C
Dew
Point
°C
Rel
Hum
%
Delta-T
°C
Wind Press
QNH
hPa
Press
MSL
hPa
Rain since
9am
mm
Dir  Spd
km/h
Gust
km/h
Spd
kts
Gust
kts
19/03:30pm 40.5 39.2 9.8 16 18.4 SSE 7 20 4 11 1005.7 1003.3 0.0
19/03:00pm 40.0 38.2 9.4 16 18.2 NNW 9 15 5 8 1006.0 1003.6 0.0
19/02:30pm 39.3 36.2 8.9 16 17.8 ESE 15 35 8 19 1006.5 1004.1 0.0
19/02:00pm 40.5 38.4 9.8 16 18.4 NNE 11 20 6 11 1007.1 1004.6 0.0
19/01:30pm 40.4 38.1 10.6 17 18.0 S 13 22 7 12 1007.7 1005.2 0.0
19/01:00pm 39.8 37.1 10.2 17 17.8 NNE 15 22 8 12 1008.2 1005.7 0.0
19/12:30pm 37.9 36.9 11.1 20 16.1 E 7 13 4 7 1008.7 1006.3 0.0
19/12:00pm 37.3 36.2 9.8 19 16.2 ENE 6 11 3 6 1009.1 1006.7 0.0
19/11:30am 36.9 35.0 11.7 22 15.3 NNW 13 20 7 11 1009.4 1007.0 0.0
19/11:00am 37.5 36.5 12.2 22 15.5 WSW 9 22 5 12 1009.7 1007.3 0.0
19/10:30am 37.0 35.9 13.1 24 14.8 NNW 11 20 6 11 1010.1 1007.6 0.0
19/10:00am 36.3 34.8 13.1 25 14.3 NW 13 20 7 11 1010.3 1007.8 0.0
19/09:30am 35.5 33.2 13.1 26 13.8 NW 17 28 9 15 1010.5 1008.0 0.0
19/09:00am 34.7 31.8 13.0 27 13.3 NW 20 37 11 20 1010.6 1008.1 -
19/08:30am 34.4 31.3 13.3 28 12.9 NW 22 30 12 16 1010.6 1008.1 -
19/08:00am 33.6 30.0 13.1 29 12.5 NNW 24 30 13 16 1010.5 1008.0 -
19/07:30am 32.0 31.1 13.7 33 11.2 NNW 11 17 6 9 1010.4 1007.9 -
19/07:00am 30.3 30.0 14.4 38 9.8 NNE 9 13 5 7 1010.1 1007.6 -
19/06:30am 28.6 28.3 14.4 41 8.7 NNE 9 11 5 6 1009.6 1007.2 -
19/06:00am 27.4 27.1 14.4 45 7.9 N 9 11 5 6 1009.4 1007.0 -
19/05:30am 27.8 27.1 14.4 43 8.2 NNE 11 15 6 8 1008.8 1006.4 -
19/05:00am 28.7 27.7 14.5 42 8.7 NE 13 15 7 8 1008.2 1005.7 -
19/04:30am 28.8 28.1 14.2 40 8.9 NE 11 13 6 7 1007.8 1005.3 -
19/04:00am 29.2 28.5 14.2 40 9.2 ENE 11 15 6 8 1007.6 1005.1 -
19/01:00am 30.7 29.7 13.5 35 10.5 NE 11 15 6 8 1007.4 1004.9 0.0
19/12:30am 31.1 29.9 12.9 32 11.0 NE 11 13 6 7 1007.7 1005.2 0.0
19/12:00am 31.8 30.0 12.1 30 11.8 NE 13 17 7 9 1007.8 1005.3 0.0
 
Date/Time
EST
Temp
°C
App
Temp
°C
Dew
Point
°C
Rel
Hum
%
Delta-T
°C
Wind Press
QNH
hPa
Press
MSL
hPa
Rain since
9am
mm
Dir  Spd
km/h
Gust
km/h
Spd
kts
Gust
kts
18/11:30pm 32.9 30.9 11.4 27 12.8 NE 13 17 7 9 1008.0 1005.5 0.0
18/11:00pm 33.9 31.4 11.1 25 13.5 E 15 20 8 11 1008.1 1005.6 0.0
18/10:30pm 34.2 31.4 11.4 25 13.6 E 17 20 9 11 1008.1 1005.6 0.0
18/10:00pm 33.1 30.5 9.2 23 13.7 E 13 15 7 8 1008.0 1005.5 0.0
18/09:30pm 33.7 31.2 9.7 23 13.9 ESE 13 17 7 9 1007.8 1005.3 0.0
18/09:00pm 34.0 31.2 8.6 21 14.5 ESE 13 15 7 8 1007.4 1004.9 0.0
18/08:30pm 34.3 32.3 8.8 21 14.6 ESE 9 11 5 6 1007.1 1004.6 0.0
18/08:00pm 35.2 33.4 8.1 19 15.5 ESE 7 9 4 5 1006.6 1004.2 0.0
18/07:30pm 36.4 34.9 8.3 18 16.1 ESE 6 9 3 5 1006.2 1003.8 0.0
18/07:00pm 37.5 36.9 7.4 16 17.2 CALM 0 6 0 3 1005.9 1003.5 0.0
18/06:30pm 38.3 37.2 7.1 15 17.8 NE 2 7 1 4 1005.4 1002.9 0.0
18/06:00pm 38.7 36.5 6.4 14 18.3 E 7 15 4 8 1005.2 1002.7 0.0
18/05:30pm 39.0 37.5 6.7 14 18.3 NE 4 13 2 7 1004.9 1002.4 0.0
18/05:00pm 39.0 36.9 5.6 13 18.7 S 6 15 3 8 1005.0 1002.5 0.0
18/04:30pm 40.8 39.0 7.0 13 19.4 SSW 6 19 3 10 1005.0 1002.5 0.0
18/04:00pm 39.0 34.8 5.6 13 18.7 S 17 24 9 13 1005.0 1002.5 0.0
18/03:30pm 39.2 36.1 5.7 13 18.7 S 11 19 6 10 1005.3 1002.8 0.0
18/03:00pm 40.0 36.3 6.4 13 19.1 W 15 24 8 13 1005.6 1003.2 0.0
18/02:30pm 39.1 36.6 6.7 14 18.4 SSW 9 20 5 11 1005.9 1003.5 0.0
18/02:00pm 38.9 36.0 6.6 14 18.3 SE 11 24 6 13 1006.3 1003.9 0.0
18/01:30pm 38.2 35.8 7.0 15 17.7 SSW 9 17 5 9 1006.8 1004.3 0.0
18/01:00pm 37.2 35.1 8.1 17 16.8 WSW 9 20 5 11 1007.3 1004.8 0.0
18/12:30pm 37.3 36.3 9.0 18 16.5 SSW 4 15 2 8 1007.8 1005.3 0.0
18/12:00pm 36.5 34.6 9.2 19 15.9 SE 9 20 5 11 1008.3 1005.8 0.0
18/11:30am 37.4 35.8 8.2 17 16.8 ENE 6 13 3 7 1008.6 1006.2 0.0
18/11:00am 36.3 33.8 8.2 18 16.1 E 11 20 6 11 1008.9 1006.5 0.0
18/10:30am 36.9 35.5 9.5 19 16.1 ENE 7 17 4 9 1009.3 1006.9 0.0
18/10:00am 36.2 34.5 9.7 20 15.6 NE 9 15 5 8 1009.5 1007.1 0.0
18/09:30am 34.8 33.5 9.3 21 14.8 N 6 11 3 6 1009.5 1007.1 0.0
18/09:00am 34.1 30.5 10.0 23 14.1 NNW 19 24 10 13 1009.2 1006.8 0.0
18/08:30am 33.1 30.2 11.0 26 13.0 NNW 17 20 9 11 1009.1 1006.7 0.0
18/08:00am 31.1 29.7 11.0 29 11.8 NNW 9 13 5 7 1009.1 1006.7 0.0
18/07:30am 29.2 29.0 10.3 31 10.8 NNE 2 6 1 3 1008.7 1006.3 0.0
18/07:00am 27.4 27.6 10.6 35 9.6 CALM 0 0 0 0 1008.4 1006.0 0.0
18/06:30am 25.3 25.3 11.1 41 8.1 SSW 2 6 1 3 1008.0 1005.5 0.0
18/06:00am 24.0 24.0 11.0 44 7.4 NW 2 6 1 3 1007.8 1005.3 0.0
18/05:30am 24.8 22.7 11.0 42 7.8 NNE 13 15 7 8 1007.3 1004.8 0.0
18/05:00am 23.6 21.9 9.9 42 7.6 NE 9 11 5 6 1007.2 1004.7 0.0
18/04:30am 24.3 23.8 9.5 39 8.2 NNE 2 7 1 4 1007.1 1004.6 0.0
18/04:00am 26.0 23.5 9.8 36 9.1 NE 13 15 7 8 1006.9 1004.4 0.0
18/03:30am 24.2 22.6 10.1 41 7.9 NE 9 13 5 7 1006.9 1004.4 0.0
18/03:00am 24.8 24.1 8.7 36 8.8 N 2 9 1 5 1006.8 1004.3 0.0
18/02:30am 25.7 24.7 8.7 34 9.3 NW 4 9 2 5 1006.6 1004.2 0.0
18/02:00am 25.9 23.9 8.8 34 9.4 NE 9 11 5 6 1006.5 1004.1 0.0
18/01:30am 27.0 26.3 8.4 31 10.2 NE 2 7 1 4 1006.5 1004.1 0.0
18/01:00am 27.8 25.9 7.6 28 11.0 N 7 13 4 7 1006.6 1004.2 0.0
18/12:30am 28.6 26.0 7.8 27 11.4 SE 11 15 6 8 1006.8 1004.3 0.0
18/12:00am 29.1 26.0 7.1 25 12.0 SE 13 15 7 8 1007.0 1004.5 0.0
 
Date/Time
EST
Temp
°C
App
Temp
°C
Dew
Point
°C
Rel
Hum
%
Delta-T
°C
Wind Press
QNH
hPa
Press
MSL
hPa
Rain since
9am
mm
Dir  Spd
km/h
Gust
km/h
Spd
kts
Gust
kts
17/11:30pm 29.8 26.7 7.1 24 12.4 SE 13 13 7 7 1007.2 1004.7 0.0
17/11:00pm 30.6 26.7 7.1 23 12.9 ESE 17 20 9 11 1007.2 1004.7 0.0
17/10:30pm 30.5 27.3 7.0 23 12.9 ESE 13 19 7 10 1007.2 1004.7 0.0
17/10:00pm 30.5 27.3 7.0 23 12.9 ESE 13 17 7 9 1007.1 1004.6 0.0
17/09:30pm 31.4 27.7 6.5 21 13.6 ESE 15 19 8 10 1006.8 1004.3 0.0
17/09:00pm 32.4 28.8 6.6 20 14.2 SE 15 17 8 9 1006.4 1004.0 0.0
17/08:30pm 32.3 29.2 5.7 19 14.4 SE 11 15 6 8 1006.2 1003.8 0.0
17/08:00pm 33.3 29.9 5.8 18 15.0 SE 13 15 7 8 1005.9 1003.5 0.0
17/07:30pm 34.0 30.9 3.7 15 16.0 SE 9 13 5 7 1005.5 1003.1 0.0
17/07:00pm 35.5 31.9 2.9 13 17.2 S 11 15 6 8 1005.0 1002.5 0.0
17/06:30pm 36.9 32.4 4.0 13 17.7 S 17 22 9 12 1004.6 1002.1 0.0
17/06:00pm 37.6 33.3 3.4 12 18.4 S 15 20 8 11 1004.2 1001.7 0.0
17/05:30pm 37.7 34.4 2.2 11 18.7 WSW 9 19 5 10 1003.9 1001.4 0.0
17/05:00pm 38.3 34.3 2.7 11 19.0 S 13 24 7 13 1003.8 1001.3 0.0
17/04:30pm 39.1 34.8 3.3 11 19.3 SW 15 22 8 12 1003.7 1001.2 0.0
17/04:00pm 38.9 34.6 3.1 11 19.3 SW 15 22 8 12 1003.7 1001.2 0.0
17/03:30pm 38.9 34.2 3.1 11 19.2 S 17 26 9 14 1004.0 1001.5 0.0
17/03:00pm 38.0 33.6 2.5 11 18.9 SE 15 24 8 13 1004.3 1001.8 0.0
17/02:30pm 38.0 33.9 2.5 11 18.8 SSW 13 22 7 12 1004.7 1002.2 0.0
17/02:00pm 37.2 34.4 3.1 12 18.2 SW 7 17 4 9 1005.2 1002.7 0.0
17/01:30pm 37.4 34.2 3.2 12 18.3 SE 9 19 5 10 1005.8 1003.4 0.0
17/01:00pm 37.0 32.8 4.0 13 17.9 ESE 15 28 8 15 1006.0 1003.6 0.0
17/12:30pm 37.8 34.9 4.7 13 18.1 SE 9 22 5 12 1006.4 1004.0 0.0
17/12:00pm 36.4 33.1 4.6 14 17.3 ESE 11 24 6 13 1006.9 1004.4 0.0
17/11:30am 36.5 33.4 3.7 13 17.6 SE 9 19 5 10 1007.3 1004.8 0.0
17/11:00am 35.5 32.5 5.8 16 16.4 SW 11 24 6 13 1007.7 1005.2 0.0
17/10:30am 34.4 33.6 10.9 24 13.9 SSE 6 13 3 7 1007.9 1005.4 0.0
17/10:00am 33.1 33.3 13.2 30 12.2 S 4 9 2 5 1008.2 1005.7 0.0
17/09:30am 31.6 32.9 15.1 36 10.3 SSE 2 7 1 4 1008.3 1005.8 0.0
17/09:00am 29.1 30.4 17.0 48 7.7 NE 6 11 3 6 1008.4 1006.0 0.0
17/08:30am 28.0 28.8 17.2 52 6.9 ENE 9 13 5 7 1008.3 1005.8 0.0
17/08:00am 26.5 27.8 18.4 61 5.2 NE 9 11 5 6 1008.3 1005.8 0.0
17/07:30am 25.2 26.5 18.4 66 4.4 ENE 9 13 5 7 1008.1 1005.6 0.0
17/07:00am 24.2 26.1 18.6 71 3.6 E 6 9 3 5 1007.7 1005.2 0.0
17/06:30am 20.9 22.1 14.8 68 3.6 NNE 2 7 1 4 1007.3 1004.8 0.0
17/06:00am 19.4 20.0 11.9 62 4.2 CALM 0 0 0 0 1007.1 1004.6 0.0
17/05:30am 19.2 19.1 12.2 64 4.0 N 4 6 2 3 1006.8 1004.3 0.0
17/05:00am 19.5 19.0 12.0 62 4.2 NNW 6 7 3 4 1006.5 1004.1 0.0
17/04:30am 19.5 18.8 12.0 62 4.2 NNE 7 13 4 7 1006.3 1003.9 0.0
17/04:00am 20.6 20.8 14.3 67 3.7 SE 6 9 3 5 1006.0 1003.6 0.0
17/03:30am 21.2 21.4 14.6 66 3.9 E 7 9 4 5 1005.8 1003.4 0.0
17/03:00am 20.4 18.7 7.4 43 6.8 SE 6 9 3 5 1005.9 1003.5 0.0
17/02:30am 20.5 17.9 6.1 39 7.3 SE 9 11 5 6 1005.9 1003.5 0.0
17/02:00am 20.7 18.6 6.6 40 7.3 ESE 7 9 4 5 1006.0 1003.6 0.0
17/01:30am 21.0 19.9 5.0 35 8.0 CALM 0 0 0 0 1006.1 1003.7 0.0
17/01:00am 21.6 20.0 4.7 33 8.4 ENE 2 7 1 4 1006.3 1003.9 0.0
17/12:30am 22.2 19.2 0.7 24 10.0 WNW 6 9 3 5 1006.5 1004.1 0.0
17/12:00am 23.5 20.2 -0.1 21 10.9 W 7 17 4 9 1006.9 1004.4 0.0
 
Date/Time
EST
Temp
°C
App
Temp
°C
Dew
Point
°C
Rel
Hum
%
Delta-T
°C
Wind Press
QNH
hPa
Press
MSL
hPa
Rain since
9am
mm
Dir  Spd
km/h
Gust
km/h
Spd
kts
Gust
kts
16/11:30pm 24.4 20.4 -2.2 17 11.9 SE 9 11 5 6 1006.9 1004.4 0.0
16/11:00pm 25.2 21.3 -1.6 17 12.2 SSE 9 11 5 6 1006.9 1004.4 0.0
16/10:30pm 23.2 19.9 2.7 26 9.9 S 9 13 5 7 1006.6 1004.2 0.0
16/10:00pm 24.8 21.8 1.7 22 11.2 SSW 7 7 4 4 1006.3 1003.9 0.0
16/09:30pm 27.4 22.8 -4.5 12 14.0 SSW 11 13 6 7 1006.0 1003.6 0.0
16/09:00pm 28.1 23.1 -3.9 12 14.3 SSW 13 13 7 7 1005.7 1003.3 0.0
16/08:30pm 28.8 24.3 -3.4 12 14.6 SSW 11 13 6 7 1005.5 1003.1 0.0
16/08:00pm 30.3 25.3 -4.7 10 15.7 SSW 13 17 7 9 1004.9 1002.4 0.0
16/07:30pm 31.5 26.8 -5.2 9 16.5 SSW 11 15 6 8 1004.6 1002.1 0.0
16/07:00pm 33.7 27.7 -6.8 7 18.1 SSW 17 20 9 11 1004.2 1001.7 0.0
16/06:30pm 35.1 28.6 -5.8 7 18.7 SW 20 28 11 15 1004.0 1001.5 0.0
16/06:00pm 35.7 29.4 -5.4 7 19.0 SW 19 26 10 14 1003.6 1001.1 0.0
16/05:30pm 36.1 29.7 -5.1 7 19.2 WSW 20 30 11 16 1003.2 1000.8 0.0
16/05:00pm 36.9 30.2 -4.5 7 19.6 WSW 22 32 12 17 1003.0 1000.6 0.0
16/04:30pm 37.0 30.9 -2.7 8 19.3 SW 20 28 11 15 1003.2 1000.8 0.0
16/04:00pm 36.5 30.7 -1.4 9 18.8 SSW 19 28 10 15 1003.5 1001.0 0.0

Other Formats:

Comma delimited format used in spreadsheet applications
http://www.bom.gov.au/fwo/IDQ60801/IDQ60801.94343.axf

JavaScript Object Notation format (JSON) in row-major order
http://www.bom.gov.au/fwo/IDQ60801/IDQ60801.94343.json